createdAt,value
2023-04-23T00:01:06.694Z,19.55
2023-04-23T00:03:59.088Z,19.45
2023-04-23T00:06:48.275Z,21.15
2023-04-23T00:09:36.409Z,15.27
2023-04-23T00:12:24.634Z,11.82
2023-04-23T00:15:14.076Z,18.25
2023-04-23T00:18:01.777Z,15.25
2023-04-23T00:20:49.597Z,25.55
2023-04-23T00:23:37.202Z,16.08
2023-04-23T00:26:24.884Z,24.05
2023-04-23T00:29:13.045Z,25.77
2023-04-23T00:32:00.999Z,22.73
2023-04-23T00:34:52.048Z,22.25
2023-04-23T00:37:39.751Z,16.85
2023-04-23T00:40:27.551Z,33.92
2023-04-23T00:43:15.680Z,26.98
2023-04-23T00:46:03.725Z,19.90
2023-04-23T00:48:52.624Z,16.50
2023-04-23T00:51:40.738Z,16.88
2023-04-23T00:54:28.759Z,10.63
2023-04-23T00:57:17.243Z,11.75
2023-04-23T01:00:06.178Z,12.50
2023-04-23T01:02:54.424Z,17.48
2023-04-23T01:05:47.972Z,14.32
2023-04-23T01:08:43.918Z,10.88
2023-04-23T01:11:32.354Z,10.93
2023-04-23T01:14:20.834Z,18.38
2023-04-23T01:17:12.583Z,12.60
2023-04-23T01:20:00.585Z,12.00
2023-04-23T01:22:48.361Z,15.10
2023-04-23T01:25:36.258Z,15.10
2023-04-23T01:28:24.220Z,10.50
2023-04-23T01:31:14.176Z,7.90
2023-04-23T01:34:03.612Z,7.40
2023-04-23T01:36:52.553Z,10.82
2023-04-23T01:39:40.237Z,10.38
2023-04-23T01:42:27.942Z,9.15
2023-04-23T01:45:17.895Z,12.75
2023-04-23T01:48:05.995Z,15.50
2023-04-23T01:50:54.360Z,15.45
2023-04-23T01:53:42.123Z,32.97
2023-04-23T01:56:30.950Z,21.50
2023-04-23T01:59:18.746Z,24.05
2023-04-23T02:02:10.905Z,28.10
2023-04-23T02:05:01.140Z,27.63
2023-04-23T02:07:52.208Z,31.83
2023-04-23T02:10:40.295Z,25.20
2023-04-23T02:13:28.029Z,20.30
2023-04-23T02:16:16.525Z,16.90
2023-04-23T02:19:04.476Z,31.02
2023-04-23T02:21:52.302Z,25.10
2023-04-23T02:24:42.584Z,16.77
2023-04-23T02:27:30.411Z,16.63
2023-04-23T02:30:18.244Z,20.98
2023-04-23T02:33:06.298Z,20.52
2023-04-23T02:35:54.228Z,20.40
2023-04-23T02:38:42.696Z,13.73
2023-04-23T02:41:30.384Z,13.80
2023-04-23T02:44:18.215Z,12.70
2023-04-23T02:47:06.079Z,10.73
2023-04-23T02:49:54.044Z,17.20
2023-04-23T02:52:41.742Z,15.98
2023-04-23T02:55:30.126Z,25.25
2023-04-23T02:58:17.938Z,26.95
2023-04-23T03:01:09.428Z,28.73
2023-04-23T03:03:57.567Z,20.63
2023-04-23T03:06:45.610Z,29.73
2023-04-23T03:09:33.286Z,19.90
2023-04-23T03:12:21.086Z,15.82
2023-04-23T03:15:09.719Z,37.83
2023-04-23T03:17:58.202Z,39.38
2023-04-23T03:20:46.654Z,41.28
2023-04-23T03:23:34.550Z,37.00
2023-04-23T03:26:22.220Z,29.77
2023-04-23T03:29:10.922Z,19.88
2023-04-23T03:31:59.007Z,17.92
2023-04-23T03:34:46.874Z,10.98
2023-04-23T03:37:36.058Z,19.65
2023-04-23T03:40:25.699Z,20.38
2023-04-23T03:43:18.146Z,11.00
2023-04-23T03:46:23.950Z,13.45
2023-04-23T03:49:12.980Z,12.27
2023-04-23T03:52:00.774Z,6.95
2023-04-23T03:54:53.318Z,9.43
2023-04-23T03:57:46.735Z,9.20
2023-04-23T04:00:42.326Z,10.75
2023-04-23T04:03:30.177Z,9.88
2023-04-23T04:06:18.092Z,15.18
2023-04-23T04:09:08.303Z,13.98
2023-04-23T04:11:56.376Z,11.35
2023-04-23T04:14:46.168Z,11.05
2023-04-23T04:17:34.003Z,12.20
2023-04-23T04:20:21.668Z,16.42
2023-04-23T04:23:09.309Z,20.48
2023-04-23T04:25:57.981Z,17.48
2023-04-23T04:28:45.729Z,11.52
2023-04-23T04:31:33.821Z,19.50
2023-04-23T04:34:21.746Z,13.00
2023-04-23T04:37:11.181Z,12.07
2023-04-23T04:39:58.908Z,20.88
2023-04-23T04:42:47.320Z,18.73
2023-04-23T04:45:35.319Z,31.85
2023-04-23T04:48:23.032Z,21.98
2023-04-23T04:51:10.859Z,18.35
2023-04-23T04:53:58.898Z,19.83
2023-04-23T04:56:46.861Z,19.50
2023-04-23T04:59:34.637Z,17.80
2023-04-23T05:02:23.609Z,17.17
2023-04-23T05:05:11.532Z,16.67
2023-04-23T05:08:05.070Z,14.85
2023-04-23T05:10:54.382Z,23.70
2023-04-23T05:13:42.516Z,18.17
2023-04-23T05:16:30.455Z,16.33
2023-04-23T05:19:21.043Z,19.90
2023-04-23T05:22:08.766Z,20.98
2023-04-23T05:24:56.582Z,23.95
2023-04-23T05:27:44.379Z,28.17
2023-04-23T05:30:32.006Z,30.33
2023-04-23T05:33:19.715Z,23.63
2023-04-23T05:36:08.480Z,23.38
2023-04-23T05:38:56.187Z,21.63
2023-04-23T05:41:43.910Z,17.48
2023-04-23T05:44:32.339Z,18.08
2023-04-23T05:47:20.159Z,22.75
2023-04-23T05:50:08.337Z,13.50
2023-04-23T05:52:56.072Z,14.80
2023-04-23T05:55:45.404Z,12.25
2023-04-23T05:58:35.958Z,13.05
2023-04-23T06:01:36.798Z,24.45
2023-04-23T06:04:25.270Z,21.67
2023-04-23T06:07:18.862Z,15.68
2023-04-23T06:10:07.398Z,13.93
2023-04-23T06:12:56.040Z,12.00
2023-04-23T06:15:46.168Z,7.50
2023-04-23T06:18:33.904Z,15.82
2023-04-23T06:21:21.755Z,11.18
2023-04-23T06:24:10.083Z,11.40
2023-04-23T06:26:58.070Z,12.57
2023-04-23T06:29:47.288Z,10.23
2023-04-23T06:32:35.053Z,9.40
2023-04-23T06:35:22.844Z,17.77
2023-04-23T06:38:10.653Z,11.40
2023-04-23T06:40:59.161Z,10.75
2023-04-23T06:43:48.538Z,11.07
2023-04-23T06:46:42.090Z,18.30
2023-04-23T06:49:29.796Z,14.27
2023-04-23T06:52:17.538Z,14.30
2023-04-23T06:55:05.581Z,9.63
2023-04-23T06:57:53.700Z,15.30
2023-04-23T07:00:42.118Z,19.42
2023-04-23T07:03:31.150Z,17.10
2023-04-23T07:06:18.825Z,8.85
2023-04-23T07:09:06.624Z,12.02
2023-04-23T07:11:54.418Z,16.05
2023-04-23T07:14:42.350Z,11.63
2023-04-23T07:17:31.272Z,13.73
2023-04-23T07:20:19.064Z,7.03
2023-04-23T07:23:06.914Z,11.57
2023-04-23T07:25:54.580Z,11.75
2023-04-23T07:28:42.377Z,6.00
2023-04-23T07:31:30.169Z,7.07
2023-04-23T07:34:17.852Z,5.32
2023-04-23T07:37:05.618Z,5.70
2023-04-23T07:39:54.172Z,3.70
2023-04-23T07:42:41.871Z,6.15
2023-04-23T07:45:32.239Z,5.93
2023-04-23T07:48:19.913Z,3.83
2023-04-23T07:51:08.733Z,5.20
2023-04-23T07:53:58.397Z,9.20
2023-04-23T07:56:51.648Z,4.90
2023-04-23T07:59:42.296Z,3.05
2023-04-23T08:02:30.344Z,3.87
2023-04-23T08:05:18.158Z,4.78
2023-04-23T08:08:05.892Z,3.42
2023-04-23T08:10:53.609Z,4.55
2023-04-23T08:13:41.231Z,3.13
2023-04-23T08:16:30.792Z,2.55
2023-04-23T08:19:18.863Z,1.98
2023-04-23T08:22:06.650Z,2.03
2023-04-23T08:24:57.170Z,2.25
2023-04-23T08:27:44.888Z,2.38
2023-04-23T08:30:32.849Z,5.97
2023-04-23T08:33:23.884Z,6.43
2023-04-23T08:36:11.535Z,3.15
2023-04-23T08:39:00.908Z,6.63
2023-04-23T08:41:55.159Z,4.28
2023-04-23T08:44:44.068Z,2.40
2023-04-23T08:47:32.872Z,2.58
2023-04-23T08:50:20.621Z,6.95
2023-04-23T08:53:08.729Z,3.00
2023-04-23T08:55:59.924Z,6.43
2023-04-23T08:58:47.751Z,6.22
2023-04-23T09:01:38.294Z,2.63
2023-04-23T09:04:29.421Z,3.00
2023-04-23T09:07:17.970Z,4.37
2023-04-23T09:10:08.280Z,2.72
2023-04-23T09:12:55.990Z,4.13
2023-04-23T09:15:44.102Z,8.93
2023-04-23T09:18:31.738Z,1.58
2023-04-23T09:21:19.702Z,6.15
2023-04-23T09:24:12.076Z,7.78
2023-04-23T09:26:59.881Z,4.03
2023-04-23T09:29:49.210Z,5.00
2023-04-23T09:32:42.582Z,3.90
2023-04-23T09:35:30.302Z,0.70
2023-04-23T09:38:20.184Z,2.67
2023-04-23T09:41:27.896Z,2.97
2023-04-23T09:44:19.635Z,3.20
2023-04-23T09:50:04.793Z,5.18
2023-04-23T09:55:45.223Z,1.88
2023-04-23T09:58:32.937Z,3.33
2023-04-23T10:01:28.821Z,2.78
2023-04-23T10:04:23.838Z,7.30
2023-04-23T10:10:05.118Z,1.25
2023-04-23T10:12:55.758Z,3.55
2023-04-23T10:15:46.794Z,4.15
2023-04-23T10:18:34.718Z,2.80
2023-04-23T10:21:42.557Z,7.32
2023-04-23T10:24:41.831Z,6.50
2023-04-23T10:27:44.664Z,3.35
2023-04-23T10:30:40.225Z,2.70
2023-04-23T10:33:37.616Z,4.20
2023-04-23T10:36:33.985Z,2.10
2023-04-23T10:39:29.832Z,1.77
2023-04-23T10:42:18.420Z,7.05
2023-04-23T10:48:09.838Z,3.42
2023-04-23T10:53:52.627Z,3.60
2023-04-23T10:56:41.549Z,1.40
2023-04-23T10:59:34.131Z,3.97
2023-04-23T11:02:24.544Z,4.05
2023-04-23T11:05:12.278Z,0.98
2023-04-23T11:08:18.316Z,0.95
2023-04-23T11:11:09.762Z,0.50
2023-04-23T11:13:59.673Z,5.32
2023-04-23T11:16:49.190Z,4.07
2023-04-23T11:19:42.014Z,0.40
2023-04-23T11:22:46.514Z,2.42
2023-04-23T11:25:36.124Z,5.60
2023-04-23T11:28:24.085Z,0.85
2023-04-23T11:31:11.737Z,0.95
2023-04-23T11:33:59.659Z,3.35
2023-04-23T11:36:49.831Z,3.83
2023-04-23T11:39:37.732Z,3.45
2023-04-23T11:42:26.144Z,3.92
2023-04-23T11:45:20.786Z,0.63
2023-04-23T11:48:08.480Z,2.25
2023-04-23T11:50:56.528Z,2.72
2023-04-23T11:53:49.988Z,1.85
2023-04-23T11:56:38.463Z,2.97
2023-04-23T11:59:26.619Z,2.42
2023-04-23T12:02:14.654Z,4.80
2023-04-23T12:05:06.486Z,1.55
2023-04-23T12:07:54.934Z,1.73
2023-04-23T12:10:45.798Z,1.30
2023-04-23T12:13:34.106Z,0.95
2023-04-23T12:16:40.203Z,4.20
2023-04-23T12:19:29.911Z,4.45
2023-04-23T12:22:17.658Z,4.65
2023-04-23T12:25:09.855Z,4.82
2023-04-23T12:28:04.102Z,3.13
2023-04-23T12:30:52.505Z,3.13
2023-04-23T12:33:40.196Z,6.00
2023-04-23T12:36:32.765Z,1.77
2023-04-23T12:39:21.991Z,2.92
2023-04-23T12:42:10.732Z,3.95
2023-04-23T12:45:07.504Z,1.80
2023-04-23T12:47:57.802Z,0.93
2023-04-23T12:50:46.805Z,4.38
2023-04-23T12:53:34.508Z,1.23
2023-04-23T12:56:22.142Z,6.38
2023-04-23T12:59:10.101Z,3.03
2023-04-23T13:02:02.800Z,0.93
2023-04-23T13:04:51.417Z,4.03
2023-04-23T13:07:39.145Z,1.83
2023-04-23T13:10:28.370Z,3.25
2023-04-23T13:13:16.216Z,13.85
2023-04-23T13:16:04.035Z,3.55
2023-04-23T13:18:54.845Z,6.18
2023-04-23T13:21:43.641Z,1.85
2023-04-23T13:24:31.364Z,1.33
2023-04-23T13:27:19.103Z,1.08
2023-04-23T13:30:07.405Z,1.95
2023-04-23T13:32:57.122Z,31.45
2023-04-23T13:35:44.864Z,3.22
2023-04-23T13:38:33.112Z,10.75
2023-04-23T13:41:20.917Z,2.47
2023-04-23T13:44:08.894Z,1.38
2023-04-23T13:46:58.768Z,1.55
2023-04-23T13:49:46.558Z,3.42
2023-04-23T13:52:35.494Z,5.13
2023-04-23T13:55:23.321Z,2.47
2023-04-23T13:58:14.023Z,2.13
2023-04-23T14:01:16.079Z,0.65
2023-04-23T14:04:13.646Z,0.60
2023-04-23T14:07:04.001Z,3.65
2023-04-23T14:09:53.040Z,0.65
2023-04-23T14:12:41.488Z,1.90
2023-04-23T14:15:29.281Z,1.70
2023-04-23T14:18:17.380Z,1.75
2023-04-23T14:21:05.465Z,3.67
2023-04-23T14:24:08.887Z,2.83
2023-04-23T14:26:57.122Z,2.53
2023-04-23T14:29:56.850Z,1.05
2023-04-23T14:32:48.445Z,4.57
2023-04-23T14:38:29.472Z,4.82
2023-04-23T14:41:17.207Z,4.28
2023-04-23T14:44:04.864Z,4.57
2023-04-23T14:46:53.401Z,0.82
2023-04-23T14:49:41.986Z,3.83
2023-04-23T14:52:30.517Z,4.85
2023-04-23T14:55:18.502Z,10.85
2023-04-23T14:58:06.649Z,2.75
2023-04-23T15:00:54.584Z,3.00
2023-04-23T15:03:44.708Z,0.75
2023-04-23T15:06:32.685Z,0.85
2023-04-23T15:09:20.453Z,1.63
2023-04-23T15:12:38.258Z,2.05
2023-04-23T15:15:36.796Z,2.05
2023-04-23T15:18:29.161Z,5.32
2023-04-23T15:21:19.797Z,3.85
2023-04-23T15:24:08.095Z,1.58
2023-04-23T15:26:58.282Z,2.03
2023-04-23T15:29:45.932Z,4.82
2023-04-23T15:32:33.743Z,0.60
2023-04-23T15:35:30.385Z,13.32
2023-04-23T15:38:19.070Z,4.38
2023-04-23T15:41:06.933Z,22.55
2023-04-23T15:43:55.840Z,2.35
2023-04-23T15:46:43.573Z,31.10
2023-04-23T15:49:31.457Z,11.65
2023-04-23T15:52:19.213Z,15.30
2023-04-23T15:55:07.858Z,1.85
2023-04-23T15:57:55.902Z,7.63
2023-04-23T16:00:46.953Z,0.98
2023-04-23T16:03:35.039Z,7.80
2023-04-23T16:06:24.231Z,4.97
2023-04-23T16:09:16.519Z,1.70
2023-04-23T16:12:04.899Z,7.72
2023-04-23T16:14:52.678Z,3.17
2023-04-23T16:17:40.700Z,14.68
2023-04-23T16:20:29.024Z,1.77
2023-04-23T16:23:16.770Z,8.88
2023-04-23T16:26:08.867Z,2.88
2023-04-23T16:29:16.773Z,4.70
2023-04-23T16:32:05.768Z,2.95
2023-04-23T16:34:53.496Z,7.35
2023-04-23T16:37:41.397Z,14.60
2023-04-23T16:40:29.613Z,5.65
2023-04-23T16:43:20.546Z,11.98
2023-04-23T16:46:10.981Z,8.50
2023-04-23T16:48:58.704Z,4.35
2023-04-23T16:51:46.452Z,5.63
2023-04-23T16:54:36.358Z,4.57
2023-04-23T16:57:24.256Z,9.70
2023-04-23T17:00:12.970Z,7.68
2023-04-23T17:03:00.765Z,4.38
2023-04-23T17:06:00.400Z,6.75
2023-04-23T17:08:48.275Z,4.10
2023-04-23T17:11:36.692Z,9.23
2023-04-23T17:14:24.511Z,5.20
2023-04-23T17:17:12.177Z,3.78
2023-04-23T17:19:59.898Z,7.60
2023-04-23T17:22:47.537Z,7.45
2023-04-23T17:25:35.405Z,10.25
2023-04-23T17:28:23.201Z,8.85
2023-04-23T17:31:11.550Z,7.45
2023-04-23T17:34:02.204Z,4.13
2023-04-23T17:36:49.883Z,4.97
2023-04-23T17:39:37.569Z,6.35
2023-04-23T17:42:25.387Z,6.20
2023-04-23T17:45:13.126Z,10.63
2023-04-23T17:48:00.940Z,14.48
2023-04-23T17:50:48.612Z,16.67
2023-04-23T17:53:36.703Z,9.20
2023-04-23T17:56:25.401Z,4.53
2023-04-23T17:59:13.283Z,12.50
2023-04-23T18:02:10.185Z,8.55
2023-04-23T18:04:59.584Z,8.07
2023-04-23T18:07:47.403Z,23.70
2023-04-23T18:10:35.210Z,3.58
2023-04-23T18:13:22.940Z,6.57
2023-04-23T18:16:10.887Z,3.67
2023-04-23T18:18:59.537Z,8.75
2023-04-23T18:21:48.056Z,5.68
2023-04-23T18:24:38.297Z,10.55
2023-04-23T18:27:26.163Z,3.95
2023-04-23T18:30:15.563Z,5.28
2023-04-23T18:33:14.048Z,4.72
2023-04-23T18:36:05.909Z,3.03
2023-04-23T18:38:54.094Z,6.82
2023-04-23T18:41:41.784Z,4.22
2023-04-23T18:44:30.102Z,2.50
2023-04-23T18:47:19.427Z,4.55
2023-04-23T18:50:29.325Z,5.75
2023-04-23T18:53:17.220Z,6.15
2023-04-23T18:56:05.379Z,4.55
2023-04-23T18:58:53.139Z,3.88
2023-04-23T19:01:42.499Z,7.05
2023-04-23T19:04:32.196Z,3.17
2023-04-23T19:07:20.103Z,1.77
2023-04-23T19:10:08.607Z,7.32
2023-04-23T19:12:56.769Z,3.58
2023-04-23T19:15:44.354Z,1.45
2023-04-23T19:18:32.341Z,10.48
2023-04-23T19:21:19.986Z,3.10
2023-04-23T19:24:08.111Z,5.57
2023-04-23T19:26:55.718Z,3.53
2023-04-23T19:29:43.671Z,3.95
2023-04-23T19:32:35.626Z,8.00
2023-04-23T19:35:23.433Z,7.97
2023-04-23T19:38:11.162Z,14.10
2023-04-23T19:41:01.799Z,15.75
2023-04-23T19:43:49.508Z,11.18
2023-04-23T19:46:37.437Z,11.38
2023-04-23T19:49:26.376Z,13.07
2023-04-23T19:52:20.030Z,7.75
2023-04-23T19:55:08.217Z,9.00
2023-04-23T19:57:56.729Z,7.10
2023-04-23T20:00:46.855Z,4.60
2023-04-23T20:03:37.756Z,6.00
2023-04-23T20:06:26.773Z,4.88
2023-04-23T20:09:22.161Z,8.38
2023-04-23T20:12:09.842Z,8.98
2023-04-23T20:15:03.690Z,11.95
2023-04-23T20:17:51.936Z,3.08
2023-04-23T20:20:42.128Z,3.47
2023-04-23T20:23:29.784Z,5.57
2023-04-23T20:26:19.016Z,6.57
2023-04-23T20:29:12.788Z,1.85
2023-04-23T20:32:08.509Z,9.25
2023-04-23T20:34:56.512Z,4.15
2023-04-23T20:37:44.254Z,3.13
2023-04-23T20:40:34.807Z,6.65
2023-04-23T20:43:44.255Z,2.60
2023-04-23T20:46:32.923Z,5.15
2023-04-23T20:49:25.508Z,10.13
2023-04-23T20:52:14.784Z,5.18
2023-04-23T20:55:02.763Z,5.55
2023-04-23T20:57:50.554Z,6.43
2023-04-23T21:00:39.264Z,6.72
2023-04-23T21:03:27.751Z,6.93
2023-04-23T21:06:15.835Z,7.03
2023-04-23T21:09:04.829Z,7.40
2023-04-23T21:11:52.598Z,6.35
2023-04-23T21:14:40.275Z,2.42
2023-04-23T21:17:28.451Z,3.63
2023-04-23T21:20:16.330Z,4.90
2023-04-23T21:23:04.098Z,6.43
2023-04-23T21:25:51.994Z,6.95
2023-04-23T21:28:39.777Z,5.95
2023-04-23T21:31:42.261Z,3.28
2023-04-23T21:34:29.896Z,5.88
2023-04-23T21:37:17.534Z,11.15
2023-04-23T21:40:06.313Z,3.03
2023-04-23T21:42:56.199Z,5.70
2023-04-23T21:45:44.074Z,3.70
2023-04-23T21:48:34.212Z,5.10
2023-04-23T21:51:23.198Z,5.85
2023-04-23T21:54:10.896Z,6.40
2023-04-23T21:56:58.683Z,3.35
2023-04-23T21:59:46.369Z,10.55
2023-04-23T22:02:34.207Z,5.47
2023-04-23T22:05:23.397Z,5.93
2023-04-23T22:08:11.175Z,1.67
2023-04-23T22:10:58.835Z,3.92
2023-04-23T22:13:46.581Z,4.50
2023-04-23T22:16:34.469Z,7.10
2023-04-23T22:19:22.432Z,9.95
2023-04-23T22:22:10.036Z,3.80
2023-04-23T22:24:57.755Z,4.90
2023-04-23T22:27:45.379Z,14.18
2023-04-23T22:30:33.262Z,6.30
2023-04-23T22:33:21.333Z,14.77
2023-04-23T22:36:09.199Z,7.88
2023-04-23T22:38:56.963Z,14.02
2023-04-23T22:41:45.743Z,8.77
2023-04-23T22:44:33.342Z,5.47
2023-04-23T22:47:21.395Z,6.70
2023-04-23T22:50:09.497Z,4.45
2023-04-23T22:52:57.398Z,3.22
2023-04-23T22:55:46.365Z,3.50
2023-04-23T22:58:34.272Z,4.47
2023-04-23T23:01:21.873Z,4.10
2023-04-23T23:04:13.287Z,4.80
2023-04-23T23:07:01.618Z,9.48
2023-04-23T23:09:49.337Z,4.85
2023-04-23T23:12:37.397Z,4.97
2023-04-23T23:15:27.444Z,5.72
2023-04-23T23:18:15.056Z,3.72
2023-04-23T23:21:03.148Z,5.28
2023-04-23T23:23:51.186Z,6.38
2023-04-23T23:26:38.783Z,4.72
2023-04-23T23:29:26.519Z,6.72
2023-04-23T23:32:14.273Z,7.32
2023-04-23T23:35:02.308Z,4.45
2023-04-23T23:37:50.024Z,6.25
2023-04-23T23:40:38.236Z,5.05
2023-04-23T23:43:29.006Z,9.80
2023-04-23T23:46:20.187Z,3.63
2023-04-23T23:49:08.583Z,4.78
2023-04-23T23:51:56.726Z,8.40
2023-04-23T23:54:45.628Z,3.72
2023-04-23T23:57:33.692Z,2.72
